Time;durP1;ratioP1;P1;durP2;ratioP2;P2;SDS_P1;SDS_P2;PMS_P1;PMS_P2;Temp;Humidity;BMP_temperature;BMP_pressure;BME280_temperature;BME280_humidity;BME280_pressure;Samples;Min_cycle;Max_cycle;Signal;HPM_P1;HPM_P2
2024/01/28 00:02:51;;;;;;;12.32;3.95;;;;;;;3.13;100.00;101986.09;5549494;32;34789;-65
2024/01/28 00:05:55;;;;;;;14.18;3.83;;;;;;;3.12;100.00;101985.25;5549018;32;34023;-64
2024/01/28 00:08:58;;;;;;;13.82;3.97;;;;;;;3.08;100.00;101986.34;5548732;32;34342;-65
2024/01/28 00:12:00;;;;;;;11.48;3.45;;;;;;;3.09;100.00;101974.09;5548936;32;34633;-64
2024/01/28 00:15:04;;;;;;;14.87;3.95;;;;;;;3.06;100.00;101967.22;5548815;32;35115;-64
2024/01/28 00:18:07;;;;;;;18.58;4.05;;;;;;;3.06;100.00;101973.31;5549048;32;34080;-64
2024/01/28 00:21:09;;;;;;;14.23;3.60;;;;;;;3.03;100.00;101973.47;5550104;32;34025;-65
2024/01/28 00:24:13;;;;;;;15.75;3.83;;;;;;;2.99;100.00;101974.56;5550769;32;34024;-64
2024/01/28 00:27:15;;;;;;;12.68;3.60;;;;;;;2.98;100.00;101982.50;5551226;32;34162;-65
2024/01/28 00:30:18;;;;;;;14.13;3.60;;;;;;;2.95;100.00;101995.78;5550835;32;34074;-69
2024/01/28 00:33:22;;;;;;;14.98;3.95;;;;;;;2.95;100.00;101995.78;5551069;32;35347;-64
2024/01/28 00:36:25;;;;;;;13.18;3.70;;;;;;;2.91;100.00;101986.34;5551145;32;34143;-65
2024/01/28 00:39:29;;;;;;;13.68;3.35;;;;;;;2.85;100.00;101995.41;5550355;32;33244;-64
2024/01/28 00:42:32;;;;;;;14.93;3.85;;;;;;;2.84;100.00;101995.47;5550951;32;34724;-64
2024/01/28 00:45:39;;;;;;;15.75;3.58;;;;;;;2.89;100.00;101999.56;5550899;32;34721;-66
2024/01/28 00:48:42;;;;;;;13.68;3.60;;;;;;;2.83;100.00;102001.62;5550978;32;33458;-64
2024/01/28 00:51:45;;;;;;;17.02;4.00;;;;;;;2.91;100.00;102007.31;5550814;32;34197;-64
2024/01/28 00:54:48;;;;;;;15.60;4.03;;;;;;;2.94;100.00;102012.44;5550850;32;34804;-64
2024/01/28 00:57:51;;;;;;;13.98;4.05;;;;;;;2.97;100.00;102018.34;5550835;32;34104;-64
2024/01/28 01:00:54;;;;;;;14.70;3.60;;;;;;;3.09;100.00;102016.03;5550818;32;34128;-63
2024/01/28 01:03:58;;;;;;;14.43;3.50;;;;;;;3.02;100.00;102018.12;5550946;32;34211;-63
2024/01/28 01:07:01;;;;;;;13.52;3.53;;;;;;;3.08;100.00;102016.97;5550539;32;34175;-63
2024/01/28 01:10:04;;;;;;;13.85;3.70;;;;;;;3.09;100.00;102022.12;5550709;32;34788;-63
2024/01/28 01:13:07;;;;;;;12.90;3.72;;;;;;;3.05;100.00;102021.41;5550573;32;34224;-64
2024/01/28 01:16:10;;;;;;;12.20;3.75;;;;;;;3.03;100.00;102018.03;5549897;32;34116;-63
2024/01/28 01:19:13;;;;;;;16.10;3.67;;;;;;;2.96;100.00;102014.03;5550671;32;35176;-64
2024/01/28 01:22:16;;;;;;;15.60;3.80;;;;;;;2.98;100.00;102014.81;5550953;32;33975;-63
2024/01/28 01:25:19;;;;;;;13.90;3.53;;;;;;;2.94;100.00;102023.78;5550583;32;34142;-64
2024/01/28 01:28:21;;;;;;;11.80;3.22;;;;;;;2.91;100.00;102025.69;5550580;32;34051;-63
2024/01/28 01:31:25;;;;;;;12.10;3.50;;;;;;;2.80;100.00;102022.78;5550532;32;34014;-64
2024/01/28 01:34:27;;;;;;;15.48;3.72;;;;;;;2.77;100.00;102021.16;5550502;32;34414;-64
2024/01/28 01:37:31;;;;;;;15.07;3.75;;;;;;;2.78;100.00;102025.47;5550421;32;34019;-63
2024/01/28 01:40:33;;;;;;;14.05;3.80;;;;;;;2.74;100.00;102025.69;5550339;32;35026;-63
2024/01/28 01:43:36;;;;;;;13.13;3.70;;;;;;;2.72;100.00;102030.16;5550440;32;34091;-64
2024/01/28 01:46:42;;;;;;;11.95;3.42;;;;;;;2.63;100.00;102031.47;5550390;32;34175;-64
2024/01/28 01:49:46;;;;;;;12.23;3.35;;;;;;;2.46;100.00;102031.47;5550504;32;35581;-64
2024/01/28 01:52:49;;;;;;;11.80;3.60;;;;;;;2.56;100.00;102030.09;5550530;32;34136;-64
2024/01/28 01:55:52;;;;;;;12.73;3.65;;;;;;;2.58;100.00;102028.22;5549557;32;34096;-64
2024/01/28 01:58:55;;;;;;;11.55;3.90;;;;;;;2.61;100.00;102041.19;5550844;32;34166;-63
2024/01/28 02:02:01;;;;;;;13.65;4.03;;;;;;;2.63;100.00;102045.44;5550402;32;34713;-64
2024/01/28 02:05:06;;;;;;;13.00;4.25;;;;;;;2.57;100.00;102045.72;5550192;32;34551;-64
2024/01/28 02:08:09;;;;;;;13.98;4.20;;;;;;;2.71;100.00;102052.88;5550253;32;34014;-63
2024/01/28 02:11:12;;;;;;;11.35;3.80;;;;;;;2.71;100.00;102036.34;5550169;32;34375;-63
2024/01/28 02:14:28;;;;;;;13.02;3.40;;;;;;;2.69;100.00;102046.91;5549663;32;34086;-64
2024/01/28 02:17:32;;;;;;;11.80;3.70;;;;;;;2.68;100.00;102036.47;5550110;32;34327;-64
2024/01/28 02:20:34;;;;;;;12.35;3.58;;;;;;;2.75;100.00;102028.25;5549333;32;34040;-65
2024/01/28 02:23:37;;;;;;;12.57;3.30;;;;;;;2.64;100.00;102033.19;5550327;32;32907;-62
2024/01/28 02:26:40;;;;;;;13.48;3.50;;;;;;;2.82;100.00;102045.34;5550120;32;34255;-63
2024/01/28 02:29:43;;;;;;;14.75;3.92;;;;;;;2.88;100.00;102049.44;5550090;32;34084;-64
2024/01/28 02:32:50;;;;;;;13.27;3.30;;;;;;;2.72;100.00;102049.34;5550006;32;34140;-64
2024/01/28 02:35:53;;;;;;;9.45;3.28;;;;;;;2.77;100.00;102054.38;5549830;32;34311;-64
2024/01/28 02:38:56;;;;;;;10.18;3.40;;;;;;;2.71;100.00;102062.56;5550030;32;34301;-64
2024/01/28 02:41:59;;;;;;;12.88;3.25;;;;;;;2.69;100.00;102067.84;5550345;32;34069;-63
2024/01/28 02:45:02;;;;;;;13.93;3.55;;;;;;;2.68;100.00;102076.63;5549210;32;34086;-63
2024/01/28 02:48:05;;;;;;;12.77;3.53;;;;;;;2.70;100.00;102087.06;5549211;32;34234;-63
2024/01/28 02:51:08;;;;;;;14.68;3.60;;;;;;;2.65;100.00;102076.81;5549884;32;33997;-63
2024/01/28 02:54:12;;;;;;;11.52;3.25;;;;;;;2.60;100.00;102087.50;5549817;32;34266;-64
2024/01/28 02:57:15;;;;;;;11.90;3.50;;;;;;;2.62;100.00;102082.19;5550217;32;34210;-64
2024/01/28 03:00:18;;;;;;;11.05;3.45;;;;;;;2.62;100.00;102074.31;5550256;32;34080;-63
2024/01/28 03:03:21;;;;;;;12.45;3.55;;;;;;;2.63;100.00;102082.09;5549796;32;34056;-63
2024/01/28 03:06:24;;;;;;;10.90;3.60;;;;;;;2.56;100.00;102074.63;5549771;32;34300;-63
2024/01/28 03:09:27;;;;;;;10.43;3.35;;;;;;;2.54;100.00;102079.09;5549834;32;34043;-64
2024/01/28 03:12:30;;;;;;;17.17;3.70;;;;;;;2.59;100.00;102088.44;5549997;32;34838;-64
2024/01/28 03:15:33;;;;;;;13.52;3.25;;;;;;;2.53;100.00;102078.25;5549641;32;34205;-63
2024/01/28 03:18:36;;;;;;;11.48;3.20;;;;;;;2.52;100.00;102084.41;5550110;32;34092;-63
2024/01/28 03:21:39;;;;;;;11.15;3.12;;;;;;;2.71;100.00;102081.72;5549636;32;34104;-63
2024/01/28 03:24:42;;;;;;;11.50;3.50;;;;;;;2.71;100.00;102086.12;5549652;32;34402;-64
2024/01/28 03:27:44;;;;;;;14.82;3.60;;;;;;;2.78;100.00;102077.87;5549690;32;33143;-63
2024/01/28 03:30:47;;;;;;;11.35;3.50;;;;;;;2.72;100.00;102077.31;5549470;32;33413;-64
2024/01/28 03:33:51;;;;;;;11.82;3.47;;;;;;;2.65;100.00;102084.66;5549419;32;34200;-64
2024/01/28 03:36:54;;;;;;;11.70;3.70;;;;;;;2.66;100.00;102083.75;5548630;32;34306;-64
2024/01/28 03:39:56;;;;;;;11.02;3.70;;;;;;;2.65;100.00;102083.81;5549472;32;33450;-64
2024/01/28 03:42:59;;;;;;;10.48;3.10;;;;;;;2.57;100.00;102085.03;5549743;32;33571;-64
2024/01/28 03:46:02;;;;;;;13.57;3.67;;;;;;;2.53;100.00;102088.72;5548615;32;34785;-63
2024/01/28 03:49:05;;;;;;;13.93;3.72;;;;;;;2.27;100.00;102094.37;5549280;32;34034;-64
2024/01/28 03:52:08;;;;;;;15.27;4.18;;;;;;;2.32;100.00;102102.88;5549280;32;34104;-64
2024/01/28 03:55:11;;;;;;;13.32;3.95;;;;;;;2.35;100.00;102100.09;5548968;32;34394;-64
2024/01/28 03:58:14;;;;;;;11.90;3.62;;;;;;;2.27;100.00;102101.37;5549190;32;34783;-63
2024/01/28 04:01:17;;;;;;;13.50;3.45;;;;;;;2.36;100.00;102100.94;5549512;32;34112;-64
2024/01/28 04:04:20;;;;;;;11.30;3.08;;;;;;;2.23;100.00;102098.03;5549207;32;33986;-63
2024/01/28 04:07:23;;;;;;;13.90;3.47;;;;;;;2.17;100.00;102107.06;5548885;32;34460;-64
2024/01/28 04:10:26;;;;;;;11.38;3.62;;;;;;;2.43;100.00;102100.56;5549034;32;35173;-64
2024/01/28 04:13:29;;;;;;;11.12;3.67;;;;;;;2.37;100.00;102100.84;5548134;32;34833;-64
2024/01/28 04:16:33;;;;;;;14.13;4.03;;;;;;;2.22;100.00;102100.75;5548742;32;34852;-63
2024/01/28 04:19:35;;;;;;;14.27;3.60;;;;;;;2.19;100.00;102109.59;5548828;32;35220;-64
2024/01/28 04:22:39;;;;;;;14.80;3.83;;;;;;;2.11;100.00;102114.34;5548814;32;33856;-64
2024/01/28 04:25:41;;;;;;;13.32;3.90;;;;;;;2.05;100.00;102117.22;5548762;32;33825;-64
2024/01/28 04:28:46;;;;;;;16.48;4.18;;;;;;;2.18;100.00;102110.50;5548926;32;33492;-64
2024/01/28 04:31:49;;;;;;;14.87;3.90;;;;;;;2.15;100.00;102108.03;5548547;32;34129;-64
2024/01/28 04:34:52;;;;;;;14.45;4.12;;;;;;;2.11;100.00;102115.19;5547908;32;34688;-64
2024/01/28 04:37:56;;;;;;;14.93;4.03;;;;;;;2.11;100.00;102115.19;5548277;32;34470;-64
2024/01/28 04:41:00;;;;;;;14.35;3.80;;;;;;;2.10;100.00;102117.87;5547724;32;34088;-64
2024/01/28 04:44:03;;;;;;;12.48;3.37;;;;;;;2.13;100.00;102115.94;5548422;32;34057;-64
2024/01/28 04:47:06;;;;;;;15.10;3.87;;;;;;;2.15;100.00;102124.59;5548454;32;34281;-63
2024/01/28 04:50:09;;;;;;;13.55;3.90;;;;;;;2.08;100.00;102127.59;5548288;32;34571;-64
2024/01/28 04:53:12;;;;;;;12.95;3.45;;;;;;;2.03;100.00;102125.16;5548224;32;34087;-64
2024/01/28 04:56:15;;;;;;;15.88;3.95;;;;;;;1.91;100.00;102125.72;5548089;32;34034;-63
2024/01/28 04:59:18;;;;;;;13.30;3.53;;;;;;;1.98;100.00;102123.69;5547542;32;34084;-64
2024/01/28 05:02:20;;;;;;;17.80;3.90;;;;;;;1.80;100.00;102127.97;5548250;32;34113;-64
2024/01/28 05:05:23;;;;;;;14.07;3.97;;;;;;;1.70;100.00;102134.53;5547461;32;34019;-64
2024/01/28 05:08:26;;;;;;;13.25;3.95;;;;;;;1.78;100.00;102134.19;5549506;32;34226;-64
2024/01/28 05:11:31;;;;;;;13.65;4.12;;;;;;;1.76;100.00;102139.50;5550935;32;34892;-64
2024/01/28 05:14:34;;;;;;;15.82;3.78;;;;;;;1.84;100.00;102147.03;5550629;32;34072;-64
2024/01/28 05:17:37;;;;;;;16.85;3.95;;;;;;;1.86;100.00;102148.63;5550659;32;34762;-64
2024/01/28 05:20:40;;;;;;;16.25;3.80;;;;;;;1.81;100.00;102157.59;5550656;32;34133;-64
2024/01/28 05:23:43;;;;;;;11.75;4.12;;;;;;;1.85;100.00;102157.41;5550991;32;34531;-63
2024/01/28 05:26:45;;;;;;;17.25;4.07;;;;;;;1.81;100.00;102158.44;5550630;32;33983;-64
2024/01/28 05:29:48;;;;;;;14.23;3.97;;;;;;;1.66;100.00;102159.97;5550533;32;34816;-64
2024/01/28 05:32:51;;;;;;;11.60;3.80;;;;;;;1.73;100.00;102152.72;5550814;32;34637;-64
2024/01/28 05:35:54;;;;;;;12.00;3.60;;;;;;;1.76;100.00;102157.81;5550639;32;34061;-64
2024/01/28 05:38:57;;;;;;;14.35;4.50;;;;;;;1.82;100.00;102161.94;5550784;32;34073;-64
2024/01/28 05:42:00;;;;;;;11.60;3.55;;;;;;;1.85;100.00;102170.47;5550359;32;34427;-64
2024/01/28 05:45:03;;;;;;;14.48;3.83;;;;;;;1.92;100.00;102169.31;5550519;32;34080;-64
2024/01/28 05:48:07;;;;;;;15.57;4.30;;;;;;;1.97;100.00;102177.78;5549793;32;34021;-63
2024/01/28 05:51:10;;;;;;;11.55;3.80;;;;;;;1.86;100.00;102171.34;5550687;32;34077;-64
2024/01/28 05:54:13;;;;;;;12.93;4.30;;;;;;;1.78;100.00;102169.06;5550710;32;34128;-64
2024/01/28 05:57:15;;;;;;;16.33;4.10;;;;;;;1.72;100.00;102185.03;5550585;32;34726;-64
2024/01/28 06:00:19;;;;;;;14.70;4.65;;;;;;;1.78;100.00;102186.53;5550333;32;34261;-64
2024/01/28 06:03:22;;;;;;;14.93;4.00;;;;;;;1.75;100.00;102190.97;5550444;32;34087;-65
2024/01/28 06:06:25;;;;;;;14.73;4.25;;;;;;;1.75;100.00;102195.34;5550146;32;34058;-65
2024/01/28 06:09:28;;;;;;;13.75;4.00;;;;;;;1.68;100.00;102200.03;5550173;32;34331;-64
2024/01/28 06:12:30;;;;;;;16.60;4.28;;;;;;;1.69;100.00;102200.88;5550225;32;35098;-64
2024/01/28 06:15:34;;;;;;;12.93;4.20;;;;;;;1.64;100.00;102208.06;5549481;32;34823;-64
2024/01/28 06:18:43;;;;;;;14.27;4.25;;;;;;;1.67;100.00;102211.41;5549151;32;34812;-64
2024/01/28 06:21:47;;;;;;;13.68;4.20;;;;;;;1.77;100.00;102219.69;5550022;32;34807;-64
2024/01/28 06:24:51;;;;;;;13.82;4.35;;;;;;;1.83;100.00;102208.12;5550251;32;35283;-64
2024/01/28 06:27:54;;;;;;;11.85;4.20;;;;;;;1.86;100.00;102213.19;5550148;32;34284;-65
2024/01/28 06:30:57;;;;;;;19.17;4.80;;;;;;;1.84;100.00;102212.44;5546148;32;121137;-64
2024/01/28 06:34:00;;;;;;;16.37;4.82;;;;;;;1.74;100.00;102217.22;5550068;32;34214;-64
2024/01/28 06:37:05;;;;;;;12.37;4.30;;;;;;;1.72;100.00;102204.19;5550350;32;34356;-64
2024/01/28 06:40:08;;;;;;;14.65;4.60;;;;;;;1.70;100.00;102215.63;5549881;32;34445;-64
2024/01/28 06:43:11;;;;;;;13.68;4.80;;;;;;;1.75;100.00;102219.75;5549951;32;34023;-65
2024/01/28 06:46:19;;;;;;;17.10;4.47;;;;;;;1.72;100.00;102217.28;5550066;32;34118;-64
2024/01/28 06:49:22;;;;;;;14.38;4.78;;;;;;;1.73;100.00;102225.97;5549840;32;34802;-64
2024/01/28 06:52:25;;;;;;;13.48;4.60;;;;;;;1.69;100.00;102227.84;5549807;32;34131;-64
2024/01/28 06:55:28;;;;;;;18.77;4.93;;;;;;;1.80;100.00;102226.53;5549898;32;34113;-64
2024/01/28 06:58:31;;;;;;;14.60;4.43;;;;;;;1.74;100.00;102233.75;5549859;32;34062;-64
2024/01/28 07:01:34;;;;;;;15.32;4.28;;;;;;;1.87;100.00;102230.59;5549697;32;34050;-64
2024/01/28 07:04:38;;;;;;;13.40;4.72;;;;;;;1.83;100.00;102237.75;5549708;32;34019;-65
2024/01/28 07:07:41;;;;;;;15.93;4.93;;;;;;;1.83;100.00;102250.84;5549971;32;34812;-64
2024/01/28 07:10:44;;;;;;;16.62;4.72;;;;;;;1.88;100.00;102237.56;5549761;32;34289;-64
2024/01/28 07:13:47;;;;;;;13.62;4.37;;;;;;;1.97;100.00;102248.47;5549949;32;34757;-64
2024/01/28 07:16:51;;;;;;;15.25;4.43;;;;;;;2.05;100.00;102248.13;5549552;32;34147;-64
2024/01/28 07:19:54;;;;;;;14.63;4.82;;;;;;;2.03;100.00;102244.72;5550024;32;34755;-64
2024/01/28 07:22:57;;;;;;;12.68;4.55;;;;;;;2.03;100.00;102248.19;5549508;32;34328;-64
2024/01/28 07:26:00;;;;;;;15.85;4.97;;;;;;;2.16;100.00;102254.59;5549054;32;34004;-64
2024/01/28 07:29:03;;;;;;;16.58;4.82;;;;;;;2.17;100.00;102253.69;5549218;32;34037;-64
2024/01/28 07:32:06;;;;;;;13.93;4.95;;;;;;;2.18;100.00;102247.50;5549488;32;34124;-64
2024/01/28 07:35:09;;;;;;;14.07;5.05;;;;;;;2.12;100.00;102260.87;5549543;32;34091;-64
2024/01/28 07:38:13;;;;;;;12.40;4.70;;;;;;;2.18;100.00;102260.59;5549395;32;34033;-64
2024/01/28 07:41:16;;;;;;;13.75;4.90;;;;;;;2.25;100.00;102270.81;5549270;32;34205;-64
2024/01/28 07:44:18;;;;;;;16.35;4.95;;;;;;;2.28;100.00;102265.41;5549202;32;33953;-65
2024/01/28 07:47:21;;;;;;;13.43;4.85;;;;;;;2.32;100.00;102267.00;5548664;32;34074;-64
2024/01/28 07:50:24;;;;;;;15.38;5.03;;;;;;;2.36;100.00;102268.56;5549359;32;34112;-64
2024/01/28 07:53:27;;;;;;;16.80;4.97;;;;;;;2.45;100.00;102265.53;5549340;32;34225;-65
2024/01/28 07:56:29;;;;;;;16.73;5.18;;;;;;;2.56;100.00;102264.13;5549270;32;34712;-64
2024/01/28 07:59:33;;;;;;;13.07;4.37;;;;;;;2.56;100.00;102263.28;5549255;32;33690;-64
2024/01/28 08:02:35;;;;;;;16.30;4.72;;;;;;;2.55;100.00;102259.78;5549201;32;34069;-64
2024/01/28 08:05:38;;;;;;;15.55;4.75;;;;;;;2.61;100.00;102274.37;5549253;32;34072;-68
2024/01/28 08:08:41;;;;;;;13.68;4.53;;;;;;;2.75;100.00;102269.34;5549175;32;34159;-65
2024/01/28 08:11:44;;;;;;;13.98;4.70;;;;;;;2.81;100.00;102276.09;5549389;32;34307;-65
2024/01/28 08:14:46;;;;;;;14.57;4.72;;;;;;;2.96;100.00;102289.28;5548206;32;34062;-65
2024/01/28 08:17:52;;;;;;;13.32;4.62;;;;;;;2.98;100.00;102299.72;5548856;32;34167;-65
2024/01/28 08:20:56;;;;;;;14.93;5.25;;;;;;;3.05;100.00;102294.09;5548869;32;34135;-65
2024/01/28 08:23:59;;;;;;;15.60;4.75;;;;;;;3.07;100.00;102301.91;5548048;32;34074;-64
2024/01/28 08:27:01;;;;;;;12.15;4.28;;;;;;;3.12;100.00;102288.56;5548465;32;34001;-65
2024/01/28 08:30:06;;;;;;;14.18;4.50;;;;;;;3.23;100.00;102287.16;5548368;32;34403;-65
2024/01/28 08:33:09;;;;;;;12.85;4.55;;;;;;;3.32;100.00;102296.34;5548217;32;34030;-65
2024/01/28 08:36:12;;;;;;;13.20;4.62;;;;;;;3.43;100.00;102287.03;5548359;32;34743;-65
2024/01/28 08:39:15;;;;;;;14.90;4.65;;;;;;;3.45;100.00;102284.31;5548248;32;34118;-64
2024/01/28 08:42:19;;;;;;;12.05;4.57;;;;;;;3.58;100.00;102305.56;5548971;32;35655;-65
2024/01/28 08:45:22;;;;;;;12.20;4.78;;;;;;;3.64;100.00;102308.72;5549794;32;34201;-65
2024/01/28 08:48:25;;;;;;;14.48;5.10;;;;;;;3.69;100.00;102313.72;5550659;32;34058;-65
2024/01/28 08:51:28;;;;;;;16.92;5.47;;;;;;;3.68;100.00;102319.94;5550738;32;34322;-65
2024/01/28 08:54:32;;;;;;;14.52;5.18;;;;;;;3.68;100.00;102318.13;5550838;32;34232;-65
2024/01/28 08:57:35;;;;;;;15.10;4.93;;;;;;;3.77;100.00;102316.84;5550563;32;34158;-65
2024/01/28 09:00:41;;;;;;;15.43;4.90;;;;;;;3.91;100.00;102320.47;5550714;32;34117;-65
2024/01/28 09:03:44;;;;;;;12.77;4.65;;;;;;;4.03;100.00;102326.00;5550726;32;34372;-66
2024/01/28 09:06:47;;;;;;;11.73;4.68;;;;;;;3.93;100.00;102330.88;5550726;32;34857;-65
2024/01/28 09:09:50;;;;;;;14.23;4.75;;;;;;;3.94;100.00;102333.44;5550681;32;34443;-64
2024/01/28 09:12:53;;;;;;;13.15;4.68;;;;;;;3.98;100.00;102341.16;5550336;32;35082;-65
2024/01/28 09:15:55;;;;;;;10.98;4.40;;;;;;;4.06;100.00;102337.22;5550385;32;34756;-64
2024/01/28 09:19:03;;;;;;;15.35;5.20;;;;;;;4.10;100.00;102343.16;5550444;32;34761;-64
2024/01/28 09:22:06;;;;;;;13.23;4.57;;;;;;;4.16;100.00;102342.84;5550609;32;33988;-65
2024/01/28 09:25:09;;;;;;;14.13;4.62;;;;;;;4.14;100.00;102345.56;5550708;32;34172;-64
2024/01/28 09:28:12;;;;;;;12.98;4.35;;;;;;;4.20;100.00;102352.28;5550698;32;34843;-64
2024/01/28 09:31:15;;;;;;;15.13;4.80;;;;;;;4.39;100.00;102358.28;5550368;32;34820;-64
2024/01/28 09:34:18;;;;;;;10.32;4.32;;;;;;;4.44;100.00;102358.87;5550344;32;34029;-65
2024/01/28 09:37:21;;;;;;;10.10;4.35;;;;;;;4.50;100.00;102361.19;5550417;32;34423;-65
2024/01/28 09:40:24;;;;;;;12.02;4.45;;;;;;;4.48;100.00;102363.03;5550385;32;34237;-65
2024/01/28 09:43:31;;;;;;;14.85;4.50;;;;;;;4.58;100.00;102374.78;5549833;32;32718;-64
2024/01/28 09:46:34;;;;;;;11.75;4.20;;;;;;;4.61;100.00;102371.12;5550400;32;34748;-65
2024/01/28 09:49:41;;;;;;;11.23;4.47;;;;;;;4.70;100.00;102373.25;5550334;32;35505;-65
2024/01/28 09:52:45;;;;;;;12.15;4.55;;;;;;;4.85;100.00;102372.44;5550304;32;34014;-65
2024/01/28 09:55:48;;;;;;;11.70;4.35;;;;;;;4.90;100.00;102380.09;5550461;32;34120;-64
2024/01/28 09:58:53;;;;;;;9.18;3.95;;;;;;;4.91;100.00;102385.28;5550169;32;34176;-64
2024/01/28 10:01:56;;;;;;;12.10;3.97;;;;;;;5.01;100.00;102375.09;5550002;32;35029;-65
2024/01/28 10:04:59;;;;;;;12.65;3.97;;;;;;;5.11;100.00;102374.53;5549896;32;34182;-64
2024/01/28 10:08:05;;;;;;;10.63;4.20;;;;;;;5.20;100.00;102379.28;5550197;32;34058;-65
2024/01/28 10:11:09;;;;;;;14.07;4.37;;;;;;;5.30;100.00;102373.50;5549972;32;34195;-65
2024/01/28 10:14:12;;;;;;;11.95;4.20;;;;;;;5.23;100.00;102372.97;5548996;32;34228;-65
2024/01/28 10:17:15;;;;;;;11.68;4.70;;;;;;;5.40;100.00;102374.69;5549707;32;34024;-65
2024/01/28 10:20:20;;;;;;;11.32;4.43;;;;;;;5.43;100.00;102372.72;5549582;32;34161;-65
2024/01/28 10:23:24;;;;;;;9.73;4.30;;;;;;;5.42;100.00;102367.56;5549590;32;33746;-64
2024/01/28 10:26:26;;;;;;;12.70;4.35;;;;;;;5.37;100.00;102367.84;5549073;32;34578;-63
2024/01/28 10:29:29;;;;;;;10.00;4.45;;;;;;;5.30;100.00;102368.25;5549768;32;34240;-64
2024/01/28 10:32:32;;;;;;;14.05;4.22;;;;;;;5.35;100.00;102367.06;5549801;32;34089;-64
2024/01/28 10:35:35;;;;;;;10.82;4.47;;;;;;;5.51;100.00;102372.31;5549125;32;34061;-65
2024/01/28 10:38:44;;;;;;;9.48;3.90;;;;;;;5.59;100.00;102356.94;5549667;32;34213;-64
2024/01/28 10:41:54;;;;;;;9.88;4.07;;;;;;;5.60;100.00;102350.72;5549884;32;34468;-64
2024/01/28 10:44:57;;;;;;;9.95;3.90;;;;;;;5.55;100.00;102347.50;5549541;32;34987;-64
2024/01/28 10:48:11;;;;;;;10.82;4.00;;;;;;;5.64;100.00;102346.97;5549487;32;35390;-64
2024/01/28 10:51:16;;;;;;;13.65;4.35;;;;;;;5.72;100.00;102343.88;5550250;32;34505;-65
2024/01/28 10:54:19;;;;;;;9.30;4.15;;;;;;;5.77;100.00;102339.22;5549902;32;34136;-64
2024/01/28 10:57:23;;;;;;;9.70;3.87;;;;;;;5.73;100.00;102335.91;5549914;32;35146;-65
2024/01/28 11:00:28;;;;;;;9.20;3.70;;;;;;;5.85;100.00;102329.94;5549717;32;35012;-64
2024/01/28 11:03:32;;;;;;;11.90;3.53;;;;;;;5.80;100.00;102342.53;5549939;32;34074;-65
2024/01/28 11:06:35;;;;;;;8.95;3.67;;;;;;;5.85;100.00;102337.84;5549253;32;33980;-66
2024/01/28 11:09:38;;;;;;;9.98;3.62;;;;;;;5.91;100.00;102340.12;5549652;32;34712;-65
2024/01/28 11:12:41;;;;;;;12.37;4.20;;;;;;;5.93;100.00;102342.69;5549700;32;34846;-65
2024/01/28 11:15:45;;;;;;;11.30;3.70;;;;;;;6.11;100.00;102336.31;5549193;32;34448;-65
2024/01/28 11:19:10;;;;;;;11.85;3.72;;;;;;;6.05;100.00;102339.34;5548734;32;33972;-65
2024/01/28 11:22:16;;;;;;;10.40;3.90;;;;;;;6.10;100.00;102334.63;5548796;32;33729;-63
2024/01/28 11:25:22;;;;;;;8.15;3.42;;;;;;;6.10;100.00;102334.63;5549093;32;34088;-66
2024/01/28 11:28:24;;;;;;;8.45;3.70;;;;;;;6.16;100.00;102334.25;5549897;32;34580;-65
2024/01/28 11:31:32;;;;;;;9.82;3.85;;;;;;;6.32;100.00;102337.69;5549232;32;34153;-64
2024/01/28 11:34:35;;;;;;;10.43;3.67;;;;;;;6.32;100.00;102327.12;5549955;32;35007;-65
2024/01/28 11:37:51;;;;;;;10.23;3.83;;;;;;;6.39;100.00;102328.44;5549434;32;35160;-65
2024/01/28 11:40:57;;;;;;;10.18;4.10;;;;;;;6.56;100.00;102324.78;5549619;32;34957;-65
2024/01/28 11:44:00;;;;;;;10.48;3.60;;;;;;;6.82;100.00;102328.44;5549709;32;34237;-65
2024/01/28 11:47:03;;;;;;;8.68;3.45;;;;;;;6.88;100.00;102320.12;5549243;32;35059;-64
2024/01/28 11:50:08;;;;;;;7.40;3.60;;;;;;;7.02;100.00;102309.53;5549409;32;33583;-65
2024/01/28 11:53:14;;;;;;;10.10;3.65;;;;;;;7.03;100.00;102315.69;5549305;32;35129;-64
2024/01/28 11:56:17;;;;;;;10.45;3.80;;;;;;;7.10;100.00;102317.84;5549315;32;34229;-65
2024/01/28 11:59:19;;;;;;;8.65;3.53;;;;;;;7.16;100.00;102320.09;5549027;32;34049;-65
2024/01/28 12:02:24;;;;;;;10.88;3.87;;;;;;;7.16;100.00;102313.97;5549595;32;34012;-64
2024/01/28 12:05:28;;;;;;;9.55;3.85;;;;;;;7.11;100.00;102308.97;5549424;32;34059;-66
2024/01/28 12:08:31;;;;;;;9.13;3.72;;;;;;;7.09;100.00;102305.59;5548297;32;33987;-64
2024/01/28 12:11:34;;;;;;;9.00;3.40;;;;;;;7.15;100.00;102304.34;5549090;32;34131;-65
2024/01/28 12:14:37;;;;;;;8.15;3.40;;;;;;;7.23;97.34;102302.06;5548973;32;34220;-65
2024/01/28 12:17:42;;;;;;;7.65;2.95;;;;;;;9.09;88.70;102314.75;5546781;32;34559;-66
2024/01/28 12:20:50;;;;;;;5.78;2.85;;;;;;;10.47;73.99;102317.53;5548932;32;34142;-66
2024/01/28 12:23:54;;;;;;;6.57;2.75;;;;;;;10.41;68.56;102313.53;5547948;32;34143;-65
2024/01/28 12:26:56;;;;;;;7.18;2.80;;;;;;;10.81;64.89;102313.91;5548293;32;33989;-65
2024/01/28 12:29:59;;;;;;;5.85;2.35;;;;;;;10.37;63.21;102324.50;5547442;32;34670;-65
2024/01/28 12:33:02;;;;;;;6.90;2.70;;;;;;;10.22;62.33;102313.28;5548263;32;35185;-65
2024/01/28 12:36:06;;;;;;;8.30;3.03;;;;;;;11.31;60.06;102306.31;5548184;32;34124;-65
2024/01/28 12:39:09;;;;;;;7.30;2.53;;;;;;;11.56;58.34;102298.03;5547715;32;34124;-67
2024/01/28 12:42:14;;;;;;;7.35;2.30;;;;;;;11.32;57.38;102308.03;5547752;32;34141;-67
2024/01/28 12:45:17;;;;;;;8.02;2.55;;;;;;;11.85;55.01;102305.41;5548321;32;34399;-65
2024/01/28 12:48:20;;;;;;;6.97;2.80;;;;;;;12.97;52.33;102303.56;5548058;32;34636;-65
2024/01/28 12:51:23;;;;;;;7.47;2.72;;;;;;;13.61;52.27;102311.94;5547904;32;34887;-66
2024/01/28 12:54:26;;;;;;;7.97;2.35;;;;;;;12.57;55.51;102307.09;5547777;32;35133;-66
2024/01/28 12:57:29;;;;;;;6.65;2.90;;;;;;;11.96;54.94;102298.19;5547726;32;34771;-65
2024/01/28 13:00:32;;;;;;;7.93;2.90;;;;;;;11.88;55.38;102300.66;5547187;32;35411;-68
2024/01/28 13:03:35;;;;;;;8.60;3.10;;;;;;;12.32;55.01;102299.53;5547856;32;34050;-66
2024/01/28 13:06:38;;;;;;;8.38;3.05;;;;;;;11.88;56.14;102299.81;5547623;32;35114;-65
2024/01/28 13:09:41;;;;;;;6.68;2.75;;;;;;;11.43;57.63;102292.00;5547591;32;34178;-66
2024/01/28 13:12:44;;;;;;;5.10;2.45;;;;;;;11.28;55.15;102303.91;5548022;32;34130;-65
2024/01/28 13:15:47;;;;;;;5.95;2.53;;;;;;;11.44;56.24;102306.16;5547766;32;34745;-65
2024/01/28 13:18:50;;;;;;;5.72;2.60;;;;;;;10.99;53.97;102305.44;5547132;32;34429;-66
2024/01/28 13:21:53;;;;;;;6.40;2.42;;;;;;;11.01;55.72;102314.97;5547469;32;34138;-65
2024/01/28 13:24:56;;;;;;;6.60;2.30;;;;;;;10.58;57.03;102319.34;5547501;32;34115;-65
2024/01/28 13:27:59;;;;;;;7.93;2.80;;;;;;;10.53;56.73;102310.91;5548379;32;34059;-65
2024/01/28 13:31:02;;;;;;;5.28;2.42;;;;;;;10.06;57.96;102317.22;5550050;32;34094;-65
2024/01/28 13:34:05;;;;;;;8.43;2.87;;;;;;;10.21;60.93;102306.31;5549557;32;34404;-65
2024/01/28 13:37:08;;;;;;;7.97;3.42;;;;;;;9.94;59.62;102313.69;5549611;32;34142;-66
2024/01/28 13:40:11;;;;;;;8.07;3.05;;;;;;;9.73;61.92;102320.63;5549922;32;34818;-66
2024/01/28 13:43:14;;;;;;;7.78;3.28;;;;;;;9.86;62.12;102316.06;5550078;32;34198;-66
2024/01/28 13:46:17;;;;;;;7.40;2.75;;;;;;;9.77;63.62;102319.41;5549606;32;34712;-65
2024/01/28 13:49:20;;;;;;;8.45;3.08;;;;;;;9.46;64.02;102315.56;5549954;32;34357;-65
2024/01/28 13:52:23;;;;;;;7.30;2.95;;;;;;;9.24;64.96;102302.22;5549835;32;34093;-65
2024/01/28 13:55:26;;;;;;;9.18;2.95;;;;;;;9.09;65.62;102310.31;5549644;32;34224;-64
2024/01/28 13:58:28;;;;;;;5.30;2.60;;;;;;;9.21;65.11;102305.06;5549448;32;34305;-64
2024/01/28 14:01:31;;;;;;;6.32;3.08;;;;;;;9.05;67.23;102303.53;5549515;32;34778;-64
2024/01/28 14:04:34;;;;;;;8.38;3.12;;;;;;;9.02;68.88;102302.91;5550133;32;33961;-65
2024/01/28 14:07:38;;;;;;;9.95;3.25;;;;;;;9.00;70.69;102308.34;5550068;32;35082;-64